createdAt,value
2018-05-10T00:00:18.569Z,56.24
2018-05-10T00:00:44.715Z,56.14
2018-05-10T00:01:10.861Z,56.04
2018-05-10T00:01:37.004Z,55.94
2018-05-10T00:02:03.140Z,56.14
2018-05-10T00:02:29.301Z,56.14
2018-05-10T00:02:55.442Z,56.14
2018-05-10T00:03:21.602Z,56.43
2018-05-10T00:03:47.765Z,56.24
2018-05-10T00:04:13.905Z,56.43
2018-05-10T00:04:40.086Z,56.72
2018-05-10T00:05:06.233Z,56.91
2018-05-10T00:05:32.389Z,56.43
2018-05-10T00:05:58.535Z,56.52
2018-05-10T00:06:24.674Z,56.14
2018-05-10T00:06:50.814Z,56.52
2018-05-10T00:07:16.979Z,56.43
2018-05-10T00:07:43.167Z,56.43
2018-05-10T00:08:09.308Z,56.14
2018-05-10T00:08:35.453Z,56.14
2018-05-10T00:09:01.621Z,55.76
2018-05-10T00:09:27.759Z,56.04
2018-05-10T00:09:53.903Z,56.43
2018-05-10T00:10:20.094Z,56.14
2018-05-10T00:10:46.242Z,55.94
2018-05-10T00:11:12.376Z,56.24
2018-05-10T00:11:38.541Z,56.14
2018-05-10T00:12:04.726Z,56.24
2018-05-10T00:12:30.869Z,56.33
2018-05-10T00:12:57.005Z,56.62
2018-05-10T00:13:23.146Z,56.04
2018-05-10T00:13:49.284Z,56.52
2018-05-10T00:14:15.417Z,56.43
2018-05-10T00:14:41.559Z,56.24
2018-05-10T00:15:07.699Z,56.52
2018-05-10T00:15:33.866Z,56.14
2018-05-10T00:16:00.028Z,56.14
2018-05-10T00:16:26.196Z,56.33
2018-05-10T00:16:52.328Z,56.52
2018-05-10T00:17:18.480Z,56.91
2018-05-10T00:17:44.647Z,56.62
2018-05-10T00:18:10.800Z,56.72
2018-05-10T00:18:36.918Z,56.72
2018-05-10T00:19:03.062Z,56.72
2018-05-10T00:19:29.199Z,56.72
2018-05-10T00:19:55.366Z,56.62
2018-05-10T00:20:21.528Z,56.52
2018-05-10T00:20:47.666Z,56.81
2018-05-10T00:21:13.801Z,56.72
2018-05-10T00:21:39.972Z,56.81
2018-05-10T00:22:06.220Z,56.62
2018-05-10T00:22:32.272Z,56.62
2018-05-10T00:22:58.411Z,56.81
2018-05-10T00:23:24.582Z,56.91
2018-05-10T00:23:50.723Z,56.81
2018-05-10T00:24:17.001Z,57.07
2018-05-10T00:24:43.020Z,56.62
2018-05-10T00:25:09.163Z,56.98
2018-05-10T00:25:35.313Z,57.1
2018-05-10T00:26:01.475Z,56.98
2018-05-10T00:26:27.612Z,57.17
2018-05-10T00:26:53.759Z,56.72
2018-05-10T00:27:19.893Z,56.72
2018-05-10T00:27:46.036Z,56.72
2018-05-10T00:28:12.180Z,56.81
2018-05-10T00:28:38.362Z,56.81
2018-05-10T00:29:04.504Z,56.81
2018-05-10T00:29:30.664Z,56.72
2018-05-10T00:29:56.805Z,56.52
2018-05-10T00:30:22.943Z,56.81
2018-05-10T00:30:49.080Z,56.81
2018-05-10T00:31:15.227Z,56.91
2018-05-10T00:31:41.364Z,56.43
2018-05-10T00:32:07.505Z,56.91
2018-05-10T00:32:33.640Z,56.52
2018-05-10T00:32:59.779Z,56.33
2018-05-10T00:33:25.925Z,55.85
2018-05-10T00:33:52.059Z,56.24
2018-05-10T00:34:18.198Z,56.43
2018-05-10T00:34:44.339Z,56.14
2018-05-10T00:35:10.474Z,56.14
2018-05-10T00:35:36.634Z,55.85
2018-05-10T00:36:02.804Z,56.24
2018-05-10T00:36:28.943Z,56.04
2018-05-10T00:36:55.084Z,56.33
2018-05-10T00:37:21.231Z,56.14
2018-05-10T00:37:47.396Z,56.04
2018-05-10T00:38:13.535Z,56.14
2018-05-10T00:38:39.700Z,56.04
2018-05-10T00:39:05.871Z,55.94
2018-05-10T00:39:32.025Z,56.14
2018-05-10T00:39:58.168Z,56.04
2018-05-10T00:40:24.317Z,56.14
2018-05-10T00:40:50.486Z,55.94
2018-05-10T00:41:16.653Z,56.14
2018-05-10T00:41:42.789Z,55.94
2018-05-10T00:42:08.955Z,56.04
2018-05-10T00:42:35.095Z,55.94
2018-05-10T00:43:01.257Z,56.62
2018-05-10T00:43:27.402Z,56.52
2018-05-10T00:43:53.538Z,56.62
2018-05-10T00:44:19.680Z,56.72
2018-05-10T00:44:45.819Z,56.91
2018-05-10T00:45:11.962Z,56.62
2018-05-10T00:45:38.101Z,56.91
2018-05-10T00:46:04.248Z,56.72
2018-05-10T00:46:30.388Z,56.72
2018-05-10T00:46:56.527Z,56.69
2018-05-10T00:47:22.688Z,56.81
2018-05-10T00:47:48.833Z,56.91
2018-05-10T00:48:14.973Z,56.98
2018-05-10T00:48:41.149Z,57.07
2018-05-10T00:49:07.273Z,57.01
2018-05-10T00:49:33.443Z,56.91
2018-05-10T00:49:59.587Z,56.98
2018-05-10T00:50:25.723Z,57.07
2018-05-10T00:50:51.858Z,57.27
2018-05-10T00:51:18.038Z,56.88
2018-05-10T00:51:44.185Z,56.79
2018-05-10T00:52:10.319Z,57.17
2018-05-10T00:52:36.469Z,57.07
2018-05-10T00:53:02.602Z,57.37
2018-05-10T00:53:28.776Z,57.75
2018-05-10T00:53:54.908Z,57.85
2018-05-10T00:54:21.053Z,57.75
2018-05-10T00:54:47.242Z,57.85
2018-05-10T00:55:13.385Z,57.85
2018-05-10T00:55:39.524Z,57.75
2018-05-10T00:56:05.661Z,57.85
2018-05-10T00:56:31.796Z,58.42
2018-05-10T00:56:57.939Z,58.14
2018-05-10T00:57:24.078Z,57.94
2018-05-10T00:57:50.221Z,58.04
2018-05-10T00:58:16.366Z,58.11
2018-05-10T00:58:42.502Z,58.01
2018-05-10T00:59:08.645Z,58.3
2018-05-10T00:59:34.792Z,58.88
2018-05-10T01:00:00.949Z,58.4
2018-05-10T01:00:27.089Z,58.59
2018-05-10T01:00:53.252Z,58.49
2018-05-10T01:01:19.384Z,58.78
2018-05-10T01:01:45.548Z,58.59
2018-05-10T01:02:11.696Z,58.97
2018-05-10T01:02:37.830Z,58.4
2018-05-10T01:03:03.967Z,58.59
2018-05-10T01:03:30.126Z,58.88
2018-05-10T01:03:56.271Z,58.59
2018-05-10T01:04:22.429Z,58.49
2018-05-10T01:04:48.573Z,58.49
2018-05-10T01:05:14.728Z,58.78
2018-05-10T01:05:40.865Z,58.81
2018-05-10T01:06:07.037Z,58.97
2018-05-10T01:06:33.173Z,58.11
2018-05-10T01:06:59.327Z,58.2
2018-05-10T01:07:25.467Z,58.4
2018-05-10T01:07:51.604Z,57.94
2018-05-10T01:08:17.768Z,57.92
2018-05-10T01:08:43.927Z,57.85
2018-05-10T01:09:10.088Z,57.94
2018-05-10T01:09:36.231Z,57.94
2018-05-10T01:10:02.400Z,57.65
2018-05-10T01:10:28.539Z,58.04
2018-05-10T01:10:54.721Z,58.04
2018-05-10T01:11:20.860Z,58.14
2018-05-10T01:11:47.000Z,58.33
2018-05-10T01:12:13.167Z,58.23
2018-05-10T01:12:39.312Z,57.94
2018-05-10T01:13:05.450Z,57.94
2018-05-10T01:13:31.599Z,58.23
2018-05-10T01:13:57.742Z,58.23
2018-05-10T01:14:23.886Z,58.42
2018-05-10T01:14:50.029Z,57.85
2018-05-10T01:15:16.197Z,57.94
2018-05-10T01:15:42.330Z,57.94
2018-05-10T01:16:08.498Z,58.23
2018-05-10T01:16:34.636Z,58.2
2018-05-10T01:17:00.796Z,58.04
2018-05-10T01:17:26.937Z,58.14
2018-05-10T01:17:53.078Z,58.04
2018-05-10T01:18:19.215Z,58.14
2018-05-10T01:18:45.374Z,57.94
2018-05-10T01:19:11.548Z,57.65
2018-05-10T01:19:37.694Z,57.85
2018-05-10T01:20:03.830Z,58.33
2018-05-10T01:20:29.974Z,57.65
2018-05-10T01:20:56.112Z,58.52
2018-05-10T01:21:22.255Z,57.56
2018-05-10T01:21:48.416Z,57.46
2018-05-10T01:22:14.556Z,57.37
2018-05-10T01:22:40.697Z,57.17
2018-05-10T01:23:06.831Z,57.27
2018-05-10T01:23:32.973Z,57.94
2018-05-10T01:23:59.105Z,57.85
2018-05-10T01:24:25.249Z,57.07
2018-05-10T01:24:51.392Z,57.56
2018-05-10T01:25:17.583Z,57.46
2018-05-10T01:25:43.726Z,57.56
2018-05-10T01:26:09.866Z,58.42
2018-05-10T01:26:36.027Z,58.14
2018-05-10T01:27:02.168Z,58.14
2018-05-10T01:27:28.307Z,58.01
2018-05-10T01:27:54.448Z,57.75
2018-05-10T01:28:20.587Z,58.04
2018-05-10T01:28:46.730Z,58.11
2018-05-10T01:29:12.872Z,58.52
2018-05-10T01:29:39.006Z,58.59
2018-05-10T01:30:05.145Z,58.59
2018-05-10T01:30:31.285Z,58.49
2018-05-10T01:30:57.424Z,58.59
2018-05-10T01:31:23.584Z,58.97
2018-05-10T01:31:49.730Z,59.17
2018-05-10T01:32:15.861Z,58.88
2018-05-10T01:32:42.004Z,59.17
2018-05-10T01:33:08.141Z,59.91
2018-05-10T01:33:34.275Z,59.55
2018-05-10T01:34:00.414Z,59.36
2018-05-10T01:34:26.557Z,59.36
2018-05-10T01:34:52.699Z,59.65
2018-05-10T01:35:18.832Z,59.84
2018-05-10T01:35:44.974Z,59.62
2018-05-10T01:36:11.110Z,59.36
2018-05-10T01:36:37.253Z,59.55
2018-05-10T01:37:03.390Z,59.55
2018-05-10T01:37:29.532Z,59.84
2018-05-10T01:37:55.680Z,59.75
2018-05-10T01:38:21.815Z,59.94
2018-05-10T01:38:47.971Z,59.75
2018-05-10T01:39:14.198Z,59.55
2018-05-10T01:39:40.260Z,59.94
2018-05-10T01:40:06.417Z,59.94
2018-05-10T01:40:32.579Z,59.75
2018-05-10T01:40:58.723Z,59.55
2018-05-10T01:41:24.869Z,59.75
2018-05-10T01:41:51.029Z,59.75
2018-05-10T01:42:17.168Z,59.94
2018-05-10T01:42:43.315Z,59.84
2018-05-10T01:43:09.480Z,59.94
2018-05-10T01:43:35.644Z,59.75
2018-05-10T01:44:01.787Z,59.75
2018-05-10T01:44:27.950Z,59.45
2018-05-10T01:44:54.092Z,59.65
2018-05-10T01:45:20.232Z,59.55
2018-05-10T01:45:46.396Z,59.94
2018-05-10T01:46:12.534Z,59.94
2018-05-10T01:46:38.678Z,59.45
2018-05-10T01:47:04.822Z,59.65
2018-05-10T01:47:30.973Z,59.72
2018-05-10T01:47:57.159Z,59.45
2018-05-10T01:48:23.272Z,59.94
2018-05-10T01:48:49.465Z,60.3
2018-05-10T01:49:15.627Z,60.03
2018-05-10T01:49:41.771Z,60.03
2018-05-10T01:50:07.938Z,60.2
2018-05-10T01:50:34.075Z,59.94
2018-05-10T01:51:00.222Z,60.23
2018-05-10T01:51:26.354Z,59.91
2018-05-10T01:51:52.511Z,60.13
2018-05-10T01:52:18.654Z,59.94
2018-05-10T01:52:44.791Z,59.94
2018-05-10T01:53:10.943Z,60.23
2018-05-10T01:53:37.105Z,60
2018-05-10T01:54:03.239Z,60.39
2018-05-10T01:54:29.378Z,60.3
2018-05-10T01:54:55.520Z,60.68
2018-05-10T01:55:21.677Z,60.58
2018-05-10T01:55:47.836Z,60.58
2018-05-10T01:56:13.983Z,60.58
2018-05-10T01:56:40.144Z,60.49
2018-05-10T01:57:06.278Z,60.58
2018-05-10T01:57:32.423Z,60.49
2018-05-10T01:57:58.580Z,60.39
2018-05-10T01:58:24.724Z,60.3
2018-05-10T01:58:50.870Z,60.3
2018-05-10T01:59:17.008Z,60.58
2018-05-10T01:59:43.142Z,60.58
2018-05-10T02:00:09.287Z,60.49
2018-05-10T02:00:35.456Z,60.77
2018-05-10T02:01:01.590Z,60.49
2018-05-10T02:01:27.740Z,60.58
2018-05-10T02:01:53.877Z,60.77
2018-05-10T02:02:20.021Z,60.68
2018-05-10T02:02:46.157Z,60.49
2018-05-10T02:03:12.320Z,60.3
2018-05-10T02:03:38.461Z,60.42
2018-05-10T02:04:04.600Z,60.32
2018-05-10T02:04:30.738Z,60.1
2018-05-10T02:04:56.907Z,60
2018-05-10T02:05:23.043Z,59.72
2018-05-10T02:05:49.176Z,60.71
2018-05-10T02:06:15.323Z,60.32
2018-05-10T02:06:41.494Z,60.2
2018-05-10T02:07:07.625Z,60.03
2018-05-10T02:07:33.760Z,59.72
2018-05-10T02:07:59.933Z,60.03
2018-05-10T02:08:26.084Z,60.13
2018-05-10T02:08:52.225Z,60.13
2018-05-10T02:09:18.392Z,60.13
2018-05-10T02:09:44.530Z,59.94
2018-05-10T02:10:10.663Z,59.75
2018-05-10T02:10:36.803Z,60.23
2018-05-10T02:11:02.967Z,60.13
2018-05-10T02:11:29.107Z,59.84
2018-05-10T02:11:55.243Z,59.55
2018-05-10T02:12:21.382Z,59.45
2018-05-10T02:12:47.517Z,59.65
2018-05-10T02:13:13.665Z,59.65
2018-05-10T02:13:39.845Z,59.65
2018-05-10T02:14:05.983Z,59.55
2018-05-10T02:14:32.149Z,59.94
2018-05-10T02:14:58.315Z,59.65
2018-05-10T02:15:24.476Z,59.55
2018-05-10T02:15:50.622Z,59.55
2018-05-10T02:16:16.756Z,59.55
2018-05-10T02:16:42.899Z,59.45
2018-05-10T02:17:09.049Z,59.45
2018-05-10T02:17:35.214Z,59.45
2018-05-10T02:18:01.355Z,59.45
2018-05-10T02:18:27.508Z,59.75
2018-05-10T02:18:53.663Z,59.45
2018-05-10T02:19:19.828Z,59.45
2018-05-10T02:19:45.966Z,59.94
2018-05-10T02:20:12.098Z,60.03
2018-05-10T02:20:38.234Z,60.58
2018-05-10T02:21:04.377Z,60.2
2018-05-10T02:21:30.536Z,60.42
2018-05-10T02:21:56.665Z,60.42
2018-05-10T02:22:22.812Z,60.32
2018-05-10T02:22:48.949Z,60.39
2018-05-10T02:23:15.091Z,60.39
2018-05-10T02:23:41.227Z,60.58
2018-05-10T02:24:07.364Z,60.61
2018-05-10T02:24:33.530Z,60.61
2018-05-10T02:24:59.676Z,60.39
2018-05-10T02:25:25.814Z,60.49
2018-05-10T02:25:51.950Z,60.52
2018-05-10T02:26:18.092Z,60.52
2018-05-10T02:26:44.228Z,60.49
2018-05-10T02:27:10.396Z,60.52
2018-05-10T02:27:36.535Z,60.3
2018-05-10T02:28:02.680Z,60.77
2018-05-10T02:28:28.819Z,60.68
2018-05-10T02:28:54.960Z,60.87
2018-05-10T02:29:21.120Z,60.77
2018-05-10T02:29:47.328Z,60.87
2018-05-10T02:30:13.426Z,60.87
2018-05-10T02:30:39.594Z,61.45
2018-05-10T02:31:05.755Z,61.25
2018-05-10T02:31:31.918Z,61.25
2018-05-10T02:31:58.085Z,61.35
2018-05-10T02:32:24.260Z,61.45
2018-05-10T02:32:50.405Z,61.25
2018-05-10T02:33:16.590Z,61.25
2018-05-10T02:33:42.828Z,61.25
2018-05-10T02:34:08.996Z,61.07
2018-05-10T02:34:35.162Z,61.25
2018-05-10T02:35:01.345Z,61.07
2018-05-10T02:35:27.541Z,61.16
2018-05-10T02:35:53.731Z,61.16
2018-05-10T02:36:19.905Z,61.25
2018-05-10T02:36:46.093Z,61.65
2018-05-10T02:37:12.239Z,61.25
2018-05-10T02:37:38.404Z,61.16
2018-05-10T02:38:04.540Z,61.35
2018-05-10T02:38:30.703Z,61.45
2018-05-10T02:38:56.861Z,61.93
2018-05-10T02:39:23.000Z,61.83
2018-05-10T02:39:49.142Z,61.55
2018-05-10T02:40:15.313Z,61.93
2018-05-10T02:40:41.451Z,61.65
2018-05-10T02:41:07.609Z,61.83
2018-05-10T02:41:33.767Z,62.03
2018-05-10T02:41:59.932Z,61.55
2018-05-10T02:42:26.076Z,61.65
2018-05-10T02:42:52.357Z,61.74
2018-05-10T02:43:18.469Z,61.83
2018-05-10T02:43:44.661Z,61.55
2018-05-10T02:44:10.821Z,61.93
2018-05-10T02:44:36.985Z,61.55
2018-05-10T02:45:03.175Z,61.83
2018-05-10T02:45:29.307Z,61.65
2018-05-10T02:45:55.471Z,61.65
2018-05-10T02:46:21.604Z,61.65
2018-05-10T02:46:47.773Z,62.03
2018-05-10T02:47:13.954Z,62.22
2018-05-10T02:47:40.085Z,62.41
2018-05-10T02:48:06.271Z,62.12
2018-05-10T02:48:32.450Z,62.22
2018-05-10T02:48:58.619Z,62.7
2018-05-10T02:49:24.783Z,62.8
2018-05-10T02:49:50.958Z,62.32
2018-05-10T02:50:17.135Z,63.06
2018-05-10T02:50:43.281Z,63.38
2018-05-10T02:51:09.460Z,63.18
2018-05-10T02:51:35.632Z,63.76
2018-05-10T02:52:01.817Z,63.73
2018-05-10T02:52:27.958Z,64.53
2018-05-10T02:52:54.137Z,64.12
2018-05-10T02:53:20.289Z,64.02
2018-05-10T02:53:46.448Z,64.12
2018-05-10T02:54:12.604Z,64.21
2018-05-10T02:54:38.763Z,64.59
2018-05-10T02:55:04.971Z,64.79
2018-05-10T02:55:31.165Z,64.98
2018-05-10T02:55:57.317Z,64.69
2018-05-10T02:56:23.458Z,64.89
2018-05-10T02:56:49.622Z,64.59
2018-05-10T02:57:15.784Z,65.37
2018-05-10T02:57:42.002Z,65.37
2018-05-10T02:58:08.186Z,64.98
2018-05-10T02:58:34.360Z,65.08
2018-05-10T02:59:00.494Z,65.85
2018-05-10T02:59:26.683Z,66.14
2018-05-10T02:59:52.843Z,66.52
2018-05-10T03:00:19.011Z,66.33
2018-05-10T03:00:45.207Z,66.04
2018-05-10T03:01:11.350Z,66.68
2018-05-10T03:01:37.501Z,66.68
2018-05-10T03:02:03.684Z,66.91
2018-05-10T03:02:29.846Z,66.81
2018-05-10T03:02:55.989Z,66.81
2018-05-10T03:03:22.181Z,66.71
2018-05-10T03:03:48.336Z,66.88
2018-05-10T03:04:14.481Z,66.71
2018-05-10T03:04:40.654Z,66.2
2018-05-10T03:05:06.823Z,66.91
2018-05-10T03:05:33.007Z,67.39
2018-05-10T03:05:59.151Z,66.88
2018-05-10T03:06:25.317Z,66.97
2018-05-10T03:06:51.480Z,67.19
2018-05-10T03:07:17.623Z,67.07
2018-05-10T03:07:43.815Z,66.97
2018-05-10T03:08:09.951Z,67.16
2018-05-10T03:08:36.151Z,67.16
2018-05-10T03:09:02.287Z,67.16
2018-05-10T03:09:28.450Z,67.45
2018-05-10T03:09:54.594Z,67.65
2018-05-10T03:10:20.755Z,67.65
2018-05-10T03:10:46.893Z,67.55
2018-05-10T03:11:13.032Z,67.65
2018-05-10T03:11:39.227Z,67.83
2018-05-10T03:12:05.359Z,67.83
2018-05-10T03:12:31.503Z,67.74
2018-05-10T03:12:57.674Z,67.55
2018-05-10T03:13:23.811Z,67.65
2018-05-10T03:13:50.030Z,67.83
2018-05-10T03:14:16.239Z,67.35
2018-05-10T03:14:42.448Z,67.65
2018-05-10T03:15:08.641Z,67.83
2018-05-10T03:15:34.816Z,67.93
2018-05-10T03:16:00.954Z,67.65
2018-05-10T03:16:27.115Z,68.03
2018-05-10T03:16:53.254Z,68.41
2018-05-10T03:17:19.446Z,68.51
2018-05-10T03:17:45.609Z,68.51
2018-05-10T03:18:11.758Z,68.8
2018-05-10T03:18:37.889Z,68.51
2018-05-10T03:19:04.031Z,68.6
2018-05-10T03:19:30.168Z,68.51
2018-05-10T03:19:56.301Z,68.51
2018-05-10T03:20:22.441Z,68.7
2018-05-10T03:20:48.579Z,68.41
2018-05-10T03:21:14.720Z,68.22
2018-05-10T03:21:40.888Z,68.22
2018-05-10T03:22:07.076Z,68.32
2018-05-10T03:22:33.218Z,68.6
2018-05-10T03:22:59.385Z,68.51
2018-05-10T03:23:25.550Z,68.41
2018-05-10T03:23:51.697Z,68.41
2018-05-10T03:24:17.862Z,68.51
2018-05-10T03:24:44.026Z,68.9
2018-05-10T03:25:10.167Z,69.28
2018-05-10T03:25:36.315Z,69.47
2018-05-10T03:26:02.480Z,69.18
2018-05-10T03:26:28.643Z,69.09
2018-05-10T03:26:54.811Z,69.47
2018-05-10T03:27:20.948Z,69.76
2018-05-10T03:27:47.094Z,68.99
2018-05-10T03:28:13.233Z,69.47
2018-05-10T03:28:39.373Z,69.47
2018-05-10T03:29:05.509Z,69.57
2018-05-10T03:29:31.649Z,69.38
2018-05-10T03:29:57.790Z,69.57
2018-05-10T03:30:23.975Z,69.47
2018-05-10T03:30:50.164Z,69.47
2018-05-10T03:31:16.357Z,69.57
2018-05-10T03:31:42.551Z,70.01
2018-05-10T03:32:08.736Z,69.73
2018-05-10T03:32:34.871Z,69.63
2018-05-10T03:33:01.014Z,69.44
2018-05-10T03:33:27.170Z,69.63
2018-05-10T03:33:53.304Z,69.73
2018-05-10T03:34:19.446Z,69.82
2018-05-10T03:34:45.603Z,70.5
2018-05-10T03:35:11.742Z,70.3
2018-05-10T03:35:37.879Z,69.92
2018-05-10T03:36:04.022Z,70.11
2018-05-10T03:36:30.195Z,70.88
2018-05-10T03:36:56.336Z,70.78
2018-05-10T03:37:22.470Z,70.78
2018-05-10T03:37:48.615Z,70.88
2018-05-10T03:38:14.760Z,70.78
2018-05-10T03:38:40.903Z,70.78
2018-05-10T03:39:07.053Z,70.98
2018-05-10T03:39:33.209Z,70.88
2018-05-10T03:39:59.368Z,71.08
2018-05-10T03:40:25.513Z,71.17
2018-05-10T03:40:51.687Z,71.17
2018-05-10T03:41:17.827Z,71.55
2018-05-10T03:41:43.970Z,71.26
2018-05-10T03:42:10.104Z,71.46
2018-05-10T03:42:36.244Z,71.55
2018-05-10T03:43:02.377Z,71.46
2018-05-10T03:43:28.519Z,71.75
2018-05-10T03:43:54.661Z,71.81
2018-05-10T03:44:20.828Z,72.03
2018-05-10T03:44:46.963Z,71.84
2018-05-10T03:45:13.103Z,71.84
2018-05-10T03:45:39.240Z,71.75
2018-05-10T03:46:05.386Z,72.13
2018-05-10T03:46:31.560Z,72.03
2018-05-10T03:46:57.687Z,72.38
2018-05-10T03:47:23.828Z,71.81
2018-05-10T03:47:49.967Z,72.03
2018-05-10T03:48:16.114Z,72.13
2018-05-10T03:48:42.273Z,72.32
2018-05-10T03:49:08.434Z,72.13
2018-05-10T03:49:34.603Z,71.84
2018-05-10T03:50:00.745Z,72.03
2018-05-10T03:50:26.926Z,72.23
2018-05-10T03:50:53.065Z,71.84
2018-05-10T03:51:19.235Z,72.03
2018-05-10T03:51:45.370Z,72
2018-05-10T03:52:11.507Z,72.38
2018-05-10T03:52:37.652Z,72.13
2018-05-10T03:53:03.812Z,72.09
2018-05-10T03:53:29.951Z,72.38
2018-05-10T03:53:56.091Z,72.29
2018-05-10T03:54:22.234Z,72.09
2018-05-10T03:54:48.366Z,71.75
2018-05-10T03:55:14.529Z,71.71
2018-05-10T03:55:40.667Z,72.09
2018-05-10T03:56:06.827Z,72.19
2018-05-10T03:56:32.967Z,72
2018-05-10T03:56:59.110Z,72.13
2018-05-10T03:57:25.245Z,71.71
2018-05-10T03:57:51.412Z,71.71
2018-05-10T03:58:17.570Z,71.71
2018-05-10T03:58:43.714Z,71.71
2018-05-10T03:59:09.858Z,72.19
2018-05-10T03:59:36.010Z,72.19
2018-05-10T04:00:02.164Z,72.67
2018-05-10T04:00:28.299Z,72.86
2018-05-10T04:00:54.462Z,72.38
2018-05-10T04:01:20.603Z,72.58
2018-05-10T04:01:46.737Z,72.19
2018-05-10T04:02:12.939Z,72.48
2018-05-10T04:02:39.101Z,72.48
2018-05-10T04:03:05.242Z,72.29
2018-05-10T04:03:31.384Z,72.29
2018-05-10T04:03:57.555Z,72.58
2018-05-10T04:04:23.664Z,72.19
2018-05-10T04:04:49.801Z,72.86
2018-05-10T04:05:15.934Z,73.15
2018-05-10T04:05:42.080Z,72.96
2018-05-10T04:06:08.307Z,72.96
2018-05-10T04:06:34.377Z,73.06
2018-05-10T04:07:00.516Z,73.06
2018-05-10T04:07:26.681Z,73.44
2018-05-10T04:07:52.828Z,73.35
2018-05-10T04:08:18.992Z,73.06
2018-05-10T04:08:45.127Z,73.44
2018-05-10T04:09:11.266Z,73.44
2018-05-10T04:09:37.408Z,73.25
2018-05-10T04:10:03.547Z,73.15
2018-05-10T04:10:29.683Z,73.44
2018-05-10T04:10:55.827Z,73.73
2018-05-10T04:11:21.960Z,73.63
2018-05-10T04:11:48.128Z,73.63
2018-05-10T04:12:14.291Z,73.63
2018-05-10T04:12:40.431Z,73.63
2018-05-10T04:13:06.572Z,73.63
2018-05-10T04:13:32.707Z,73.54
2018-05-10T04:13:58.844Z,73.44
2018-05-10T04:14:24.987Z,73.63
2018-05-10T04:14:51.145Z,74.15
2018-05-10T04:15:17.290Z,73.57
2018-05-10T04:15:43.429Z,73.96
2018-05-10T04:16:09.578Z,74.02
2018-05-10T04:16:35.734Z,74.3
2018-05-10T04:17:01.875Z,74.02
2018-05-10T04:17:28.044Z,73.57
2018-05-10T04:17:54.183Z,74.02
2018-05-10T04:18:20.384Z,74.11
2018-05-10T04:18:46.480Z,74.02
2018-05-10T04:19:12.617Z,74.05
2018-05-10T04:19:38.763Z,74.11
2018-05-10T04:20:04.905Z,74.15
2018-05-10T04:20:31.067Z,73.67
2018-05-10T04:20:57.212Z,74.21
2018-05-10T04:21:23.368Z,74.25
2018-05-10T04:21:49.514Z,74.63
2018-05-10T04:22:15.651Z,74.73
2018-05-10T04:22:41.788Z,74.92
2018-05-10T04:23:07.956Z,74.63
2018-05-10T04:23:34.114Z,74.34
2018-05-10T04:24:00.260Z,74.6
2018-05-10T04:24:26.406Z,74.3
2018-05-10T04:24:52.544Z,74.6
2018-05-10T04:25:18.686Z,74.4
2018-05-10T04:25:44.828Z,74.88
2018-05-10T04:26:10.972Z,74.88
2018-05-10T04:26:37.104Z,74.98
2018-05-10T04:27:03.243Z,74.79
2018-05-10T04:27:29.427Z,74.98
2018-05-10T04:27:55.700Z,75.07
2018-05-10T04:28:21.714Z,74.98
2018-05-10T04:28:47.848Z,75.56
2018-05-10T04:29:13.991Z,75.07
2018-05-10T04:29:40.129Z,74.88
2018-05-10T04:30:06.274Z,74.88
2018-05-10T04:30:32.416Z,74.88
2018-05-10T04:30:58.562Z,74.79
2018-05-10T04:31:24.724Z,74.79
2018-05-10T04:31:50.893Z,74.79
2018-05-10T04:32:17.054Z,75.17
2018-05-10T04:32:43.217Z,75.4
2018-05-10T04:33:09.378Z,74.6
2018-05-10T04:33:35.523Z,74.73
2018-05-10T04:34:01.660Z,74.6
2018-05-10T04:34:27.803Z,74.5
2018-05-10T04:34:53.942Z,74.34
2018-05-10T04:35:20.076Z,74.63
2018-05-10T04:35:46.230Z,74.69
2018-05-10T04:36:12.376Z,74.5
2018-05-10T04:36:38.514Z,74.6
2018-05-10T04:37:04.681Z,74.15
2018-05-10T04:37:30.847Z,74.25
2018-05-10T04:37:56.978Z,74.02
2018-05-10T04:38:23.128Z,74.6
2018-05-10T04:38:49.265Z,74.34
2018-05-10T04:39:15.398Z,74.05
2018-05-10T04:39:41.585Z,74.6
2018-05-10T04:40:07.729Z,74.54
2018-05-10T04:40:33.889Z,74.34
2018-05-10T04:41:00.027Z,74.34
2018-05-10T04:41:26.197Z,73.96
2018-05-10T04:41:52.353Z,74.15
2018-05-10T04:42:18.597Z,73.86
2018-05-10T04:42:44.661Z,74.05
2018-05-10T04:43:10.798Z,73.38
2018-05-10T04:43:36.961Z,73.09
2018-05-10T04:44:03.132Z,73.19
2018-05-10T04:44:29.263Z,73.67
2018-05-10T04:44:55.401Z,73.38
2018-05-10T04:45:21.540Z,72.71
2018-05-10T04:45:47.677Z,72.94
2018-05-10T04:46:13.860Z,72.9
2018-05-10T04:46:40.027Z,72.9
2018-05-10T04:47:06.214Z,72.26
2018-05-10T04:47:32.360Z,72.71
2018-05-10T04:47:58.520Z,72.71
2018-05-10T04:48:24.695Z,72.36
2018-05-10T04:48:50.847Z,72.36
2018-05-10T04:49:17.027Z,72.55
2018-05-10T04:49:43.160Z,71.97
2018-05-10T04:50:09.305Z,71.88
2018-05-10T04:50:35.446Z,71.97
2018-05-10T04:51:01.592Z,71.78
2018-05-10T04:51:27.755Z,72.17
2018-05-10T04:51:53.893Z,72.07
2018-05-10T04:52:20.027Z,71.88
2018-05-10T04:52:46.223Z,71.97
2018-05-10T04:53:12.370Z,71.78
2018-05-10T04:53:38.536Z,71.78
2018-05-10T04:54:04.684Z,71.2
2018-05-10T04:54:30.842Z,72.03
2018-05-10T04:54:57.002Z,71.94
2018-05-10T04:55:23.167Z,71.75
2018-05-10T04:55:49.313Z,71.84
2018-05-10T04:56:15.447Z,71.84
2018-05-10T04:56:41.595Z,71.94
2018-05-10T04:57:07.755Z,71.97
2018-05-10T04:57:33.888Z,72.13
2018-05-10T04:58:00.030Z,72.26
2018-05-10T04:58:26.188Z,72.74
2018-05-10T04:58:52.330Z,72.55
2018-05-10T04:59:18.472Z,71.88
2018-05-10T04:59:44.615Z,71.4
2018-05-10T05:00:10.758Z,71.49
2018-05-10T05:00:36.906Z,71.59
2018-05-10T05:01:03.056Z,71.59
2018-05-10T05:01:29.213Z,71.4
2018-05-10T05:01:55.374Z,71.49
2018-05-10T05:02:21.513Z,71.4
2018-05-10T05:02:47.654Z,71.2
2018-05-10T05:03:13.797Z,71.49
2018-05-10T05:03:39.932Z,71.59
2018-05-10T05:04:06.079Z,71.49
2018-05-10T05:04:32.214Z,71.59
2018-05-10T05:04:58.350Z,71.49
2018-05-10T05:05:24.492Z,71.4
2018-05-10T05:05:50.627Z,71.69
2018-05-10T05:06:16.765Z,71.78
2018-05-10T05:06:42.928Z,71.78
2018-05-10T05:07:09.068Z,71.69
2018-05-10T05:07:35.205Z,71.01
2018-05-10T05:08:01.337Z,71.4
2018-05-10T05:08:27.477Z,71.26
2018-05-10T05:08:53.635Z,71.2
2018-05-10T05:09:19.780Z,71.59
2018-05-10T05:09:45.920Z,71.55
2018-05-10T05:10:12.061Z,71.59
2018-05-10T05:10:38.218Z,71.55
2018-05-10T05:11:04.359Z,71.46
2018-05-10T05:11:30.504Z,71.49
2018-05-10T05:11:56.741Z,71.2
2018-05-10T05:12:22.803Z,71.49
2018-05-10T05:12:48.944Z,71.49
2018-05-10T05:13:15.083Z,71.4
2018-05-10T05:13:41.271Z,71.3
2018-05-10T05:14:07.405Z,71.49
2018-05-10T05:14:33.546Z,71.75
2018-05-10T05:14:59.694Z,71.55
2018-05-10T05:15:25.832Z,71.46
2018-05-10T05:15:51.976Z,71.46
2018-05-10T05:16:18.136Z,71.26
2018-05-10T05:16:44.278Z,71.65
2018-05-10T05:17:10.415Z,71.4
2018-05-10T05:17:36.557Z,71.55
2018-05-10T05:18:02.696Z,71.36
2018-05-10T05:18:28.837Z,71.17
2018-05-10T05:18:55.012Z,71.46
2018-05-10T05:19:21.154Z,71.46
2018-05-10T05:19:47.292Z,71.46
2018-05-10T05:20:13.436Z,71.36
2018-05-10T05:20:39.575Z,71.65
2018-05-10T05:21:05.714Z,71.36
2018-05-10T05:21:31.930Z,71.36
2018-05-10T05:21:57.998Z,71.4
2018-05-10T05:22:24.135Z,71.3
2018-05-10T05:22:50.273Z,71.46
2018-05-10T05:23:16.413Z,71.01
2018-05-10T05:23:42.574Z,71.36
2018-05-10T05:24:08.713Z,71.17
2018-05-10T05:24:34.855Z,71.55
2018-05-10T05:25:01.000Z,71.26
2018-05-10T05:25:27.141Z,71.17
2018-05-10T05:25:53.284Z,71.46
2018-05-10T05:26:19.431Z,71.84
2018-05-10T05:26:45.568Z,71.26
2018-05-10T05:27:11.701Z,71.49
2018-05-10T05:27:37.852Z,71.46
2018-05-10T05:28:03.995Z,70.98
2018-05-10T05:28:30.144Z,70.98
2018-05-10T05:28:56.268Z,71.08
2018-05-10T05:29:22.415Z,71.26
2018-05-10T05:29:48.574Z,71.36
2018-05-10T05:30:14.719Z,71.17
2018-05-10T05:30:40.888Z,71.91
2018-05-10T05:31:07.062Z,71.81
2018-05-10T05:31:33.244Z,71.91
2018-05-10T05:31:59.386Z,72.48
2018-05-10T05:32:25.521Z,72.58
2018-05-10T05:32:51.688Z,72.77
2018-05-10T05:33:17.831Z,72.67
2018-05-10T05:33:43.969Z,72.86
2018-05-10T05:34:10.107Z,73.54
2018-05-10T05:34:36.264Z,73.54
2018-05-10T05:35:02.400Z,73.25
2018-05-10T05:35:28.568Z,73.06
2018-05-10T05:35:54.805Z,73.73
2018-05-10T05:36:20.871Z,74.11
2018-05-10T05:36:47.036Z,74.21
2018-05-10T05:37:13.168Z,73.25
2018-05-10T05:37:39.307Z,73.28